Time;durP1;ratioP1;P1;durP2;ratioP2;P2;SDS_P1;SDS_P2;PMS_P1;PMS_P2;Temp;Humidity;BMP_temperature;BMP_pressure;BME280_temperature;BME280_humidity;BME280_pressure;Samples;Min_cycle;Max_cycle;Signal;HPM_P1;HPM_P2
2023/10/31 00:00:12;;;;;;;3.10;2.80;;;;;;;;;;4898055;29;20702;-86
2023/10/31 00:03:16;;;;;;;2.60;2.40;;;;;;;;;;4913016;29;20185;-86
2023/10/31 00:06:22;;;;;;;2.67;2.10;;;;;;;;;;4900167;29;20189;-86
2023/10/31 00:09:26;;;;;;;3.53;2.00;;;;;;;;;;4898672;29;20225;-86
2023/10/31 00:12:30;;;;;;;2.13;1.47;;;;;;;;;;4896212;29;20669;-86
2023/10/31 00:15:35;;;;;;;1.97;1.60;;;;;;;;;;4910416;29;20190;-86
2023/10/31 00:18:39;;;;;;;3.20;1.50;;;;;;;;;;4910660;29;20193;-86
2023/10/31 00:21:43;;;;;;;4.23;1.83;;;;;;;;;;4910215;29;20194;-86
2023/10/31 00:24:47;;;;;;;2.63;1.90;;;;;;;;;;4907915;29;20190;-86
2023/10/31 00:27:51;;;;;;;3.10;1.83;;;;;;;;;;4905520;29;20221;-86
2023/10/31 00:30:55;;;;;;;2.77;2.13;;;;;;;;;;4884736;29;20189;-86
2023/10/31 00:34:01;;;;;;;3.87;2.07;;;;;;;;;;4896191;29;20197;-86
2023/10/31 00:37:05;;;;;;;2.60;2.03;;;;;;;;;;4909263;29;20194;-86
2023/10/31 00:40:11;;;;;;;2.83;2.30;;;;;;;;;;4898035;29;20225;-86
2023/10/31 00:43:15;;;;;;;2.50;1.90;;;;;;;;;;4898301;29;20210;-86
2023/10/31 00:46:19;;;;;;;5.00;2.10;;;;;;;;;;4897729;29;20197;-86
2023/10/31 00:49:23;;;;;;;1.80;1.70;;;;;;;;;;4907462;29;20225;-86
2023/10/31 00:52:27;;;;;;;2.17;1.80;;;;;;;;;;4894807;29;20198;-86
2023/10/31 00:55:31;;;;;;;1.60;1.50;;;;;;;;;;4907237;29;20189;-86
2023/10/31 00:58:35;;;;;;;1.90;1.50;;;;;;;;;;4907034;29;20533;-86
2023/10/31 01:01:40;;;;;;;1.70;1.60;;;;;;;;;;4897473;29;20193;-86
2023/10/31 01:04:44;;;;;;;2.17;1.63;;;;;;;;;;4890469;29;20185;-86
2023/10/31 01:07:48;;;;;;;2.10;1.80;;;;;;;;;;4911038;29;20221;-86
2023/10/31 01:10:52;;;;;;;2.53;2.13;;;;;;;;;;4909475;29;20189;-86
2023/10/31 01:13:56;;;;;;;3.80;2.20;;;;;;;;;;4901458;29;20185;-86
2023/10/31 01:17:01;;;;;;;4.00;2.20;;;;;;;;;;4911817;29;20186;-86
2023/10/31 01:20:06;;;;;;;4.20;2.47;;;;;;;;;;4902441;29;20229;-86
2023/10/31 01:23:10;;;;;;;4.07;2.30;;;;;;;;;;4913535;29;20647;-86
2023/10/31 01:26:14;;;;;;;2.50;2.10;;;;;;;;;;4911660;29;20190;-86
2023/10/31 01:29:18;;;;;;;2.53;2.30;;;;;;;;;;4913100;29;20221;-86
2023/10/31 01:32:23;;;;;;;3.07;2.10;;;;;;;;;;4910898;29;20190;-86
2023/10/31 01:35:27;;;;;;;2.40;2.20;;;;;;;;;;4916143;29;20190;-86
2023/10/31 01:38:31;;;;;;;2.63;2.30;;;;;;;;;;4915403;29;20193;-86
2023/10/31 01:41:36;;;;;;;3.10;2.30;;;;;;;;;;4915445;29;20194;-86
2023/10/31 01:44:40;;;;;;;2.63;2.30;;;;;;;;;;4912849;29;20213;-85
2023/10/31 01:47:48;;;;;;;2.47;1.93;;;;;;;;;;4903634;29;20217;-86
2023/10/31 01:50:53;;;;;;;2.73;2.10;;;;;;;;;;4905742;29;20189;-86
2023/10/31 01:53:57;;;;;;;2.47;1.80;;;;;;;;;;4916086;29;20186;-87
2023/10/31 01:57:04;;;;;;;2.37;2.00;;;;;;;;;;4905782;29;20190;-86
2023/10/31 02:00:10;;;;;;;2.33;2.10;;;;;;;;;;4916336;29;20229;-87
2023/10/31 02:03:17;;;;;;;2.53;2.07;;;;;;;;;;4916356;29;20186;-86
2023/10/31 02:06:21;;;;;;;2.03;1.80;;;;;;;;;;4915803;29;20189;-86
2023/10/31 02:09:28;;;;;;;3.40;1.67;;;;;;;;;;4894349;29;20229;-86
2023/10/31 02:12:35;;;;;;;1.60;1.50;;;;;;;;;;4914836;29;20209;-86
2023/10/31 02:15:39;;;;;;;1.30;1.20;;;;;;;;;;4905282;29;20194;-86
2023/10/31 02:18:44;;;;;;;1.13;1.03;;;;;;;;;;4911149;29;20225;-85
2023/10/31 02:21:48;;;;;;;3.53;1.00;;;;;;;;;;4902404;29;20190;-86
2023/10/31 02:24:52;;;;;;;2.70;1.17;;;;;;;;;;4899704;29;20651;-86
2023/10/31 02:27:56;;;;;;;1.30;1.00;;;;;;;;;;4909811;29;20213;-86
2023/10/31 02:31:01;;;;;;;0.90;0.90;;;;;;;;;;4899430;29;20190;-86
2023/10/31 02:34:23;;;;;;;1.20;0.90;;;;;;;;;;4910187;29;20190;-86
2023/10/31 02:37:27;;;;;;;2.43;1.10;;;;;;;;;;4911307;29;20182;-85
2023/10/31 02:40:32;;;;;;;1.27;0.90;;;;;;;;;;4911690;29;20576;-85
2023/10/31 02:43:37;;;;;;;5.47;1.10;;;;;;;;;;4913315;29;20209;-86
2023/10/31 02:46:41;;;;;;;1.20;1.00;;;;;;;;;;4901457;29;20193;-86
2023/10/31 02:49:47;;;;;;;1.20;1.00;;;;;;;;;;4903731;29;20560;-86
2023/10/31 02:52:51;;;;;;;2.43;1.20;;;;;;;;;;4913555;29;20193;-86
2023/10/31 02:55:55;;;;;;;1.10;1.00;;;;;;;;;;4903677;29;20174;-86
2023/10/31 02:58:59;;;;;;;1.30;1.00;;;;;;;;;;4901963;29;20228;-86
2023/10/31 03:02:03;;;;;;;1.20;1.10;;;;;;;;;;4901209;29;20529;-86
2023/10/31 03:05:08;;;;;;;1.10;1.00;;;;;;;;;;4912590;29;20189;-86
2023/10/31 03:08:12;;;;;;;1.03;0.90;;;;;;;;;;4911240;29;20683;-86
2023/10/31 03:11:24;;;;;;;1.87;0.90;;;;;;;;;;4911280;29;20186;-86
2023/10/31 03:14:28;;;;;;;0.83;0.80;;;;;;;;;;4911542;29;20190;-86
2023/10/31 03:17:32;;;;;;;0.87;0.83;;;;;;;;;;4915577;23;20249;-83
2023/10/31 03:20:36;;;;;;;1.23;1.00;;;;;;;;;;4899873;29;20186;-81
2023/10/31 03:23:48;;;;;;;1.87;0.97;;;;;;;;;;4900157;29;20193;-83
2023/10/31 03:26:52;;;;;;;0.90;0.90;;;;;;;;;;4900794;29;20229;-81
2023/10/31 03:29:59;;;;;;;1.57;0.80;;;;;;;;;;4900025;29;20186;-82
2023/10/31 03:33:02;;;;;;;0.97;0.87;;;;;;;;;;4900190;29;20185;-82
2023/10/31 03:36:08;;;;;;;0.80;0.70;;;;;;;;;;4900071;29;20225;-83
2023/10/31 03:39:12;;;;;;;0.80;0.70;;;;;;;;;;4889423;29;20185;-83
2023/10/31 03:42:16;;;;;;;0.70;0.70;;;;;;;;;;4900206;29;20190;-83
2023/10/31 03:45:20;;;;;;;0.93;0.80;;;;;;;;;;4900053;29;20193;-82
2023/10/31 03:48:25;;;;;;;1.10;0.97;;;;;;;;;;4899764;29;20217;-82
2023/10/31 03:51:28;;;;;;;2.00;1.00;;;;;;;;;;4899499;29;20639;-81
2023/10/31 03:54:33;;;;;;;1.10;0.77;;;;;;;;;;4899679;29;20190;-81
2023/10/31 03:57:38;;;;;;;2.03;1.00;;;;;;;;;;4899082;29;20225;-83
2023/10/31 04:00:42;;;;;;;2.70;0.80;;;;;;;;;;4899464;29;20186;-83
2023/10/31 04:03:46;;;;;;;0.60;0.60;;;;;;;;;;4900314;29;20627;-83
2023/10/31 04:06:50;;;;;;;0.70;0.70;;;;;;;;;;4899357;29;20229;-83
2023/10/31 04:09:56;;;;;;;0.87;0.50;;;;;;;;;;4899536;29;20182;-82
2023/10/31 04:13:00;;;;;;;2.53;0.70;;;;;;;;;;4899537;29;20194;-83
2023/10/31 04:16:05;;;;;;;0.80;0.70;;;;;;;;;;4900214;29;20240;-82
2023/10/31 04:19:09;;;;;;;1.47;0.93;;;;;;;;;;4900290;29;20182;-82
2023/10/31 04:22:13;;;;;;;2.20;0.80;;;;;;;;;;4900309;29;20190;-83
2023/10/31 04:25:17;;;;;;;2.00;0.80;;;;;;;;;;4899221;29;20190;-83
2023/10/31 04:28:21;;;;;;;1.37;0.80;;;;;;;;;;4899601;29;20213;-83
2023/10/31 04:31:25;;;;;;;1.13;0.70;;;;;;;;;;4888577;29;20193;-82
2023/10/31 04:34:29;;;;;;;1.30;0.60;;;;;;;;;;4899412;29;20190;-82
2023/10/31 04:37:33;;;;;;;0.80;0.50;;;;;;;;;;4899156;29;20233;-83
2023/10/31 04:40:37;;;;;;;1.63;0.73;;;;;;;;;;4899540;29;20640;-82
2023/10/31 04:43:42;;;;;;;0.70;0.70;;;;;;;;;;4899446;29;20190;-83
2023/10/31 04:46:47;;;;;;;0.90;0.77;;;;;;;;;;4899319;29;20229;-82
2023/10/31 04:49:51;;;;;;;1.27;0.80;;;;;;;;;;4899946;29;20217;-82
2023/10/31 04:52:55;;;;;;;1.57;0.90;;;;;;;;;;4899454;29;20528;-82
2023/10/31 04:55:59;;;;;;;1.00;0.90;;;;;;;;;;4900386;29;20229;-83
2023/10/31 04:59:03;;;;;;;1.70;1.00;;;;;;;;;;4898784;29;20190;-82
2023/10/31 05:02:07;;;;;;;1.20;1.00;;;;;;;;;;4899091;29;20190;-82
2023/10/31 05:05:12;;;;;;;0.70;0.67;;;;;;;;;;4898824;29;20190;-82
2023/10/31 05:08:16;;;;;;;3.20;0.60;;;;;;;;;;4899361;29;20221;-82
2023/10/31 05:11:20;;;;;;;1.00;0.80;;;;;;;;;;4899127;29;20193;-82
2023/10/31 05:14:24;;;;;;;1.13;0.90;;;;;;;;;;4899579;29;20193;-83
2023/10/31 05:17:28;;;;;;;0.60;0.60;;;;;;;;;;4898784;29;20225;-82
2023/10/31 05:20:34;;;;;;;2.67;0.60;;;;;;;;;;4898809;29;20186;-83
2023/10/31 05:23:38;;;;;;;0.87;0.53;;;;;;;;;;4887665;29;20201;-82
2023/10/31 05:26:45;;;;;;;3.73;0.97;;;;;;;;;;4899500;29;20225;-82
2023/10/31 05:29:49;;;;;;;0.87;0.67;;;;;;;;;;4899158;29;20213;-82
2023/10/31 05:32:54;;;;;;;0.83;0.57;;;;;;;;;;4899400;29;20193;-82
2023/10/31 05:35:58;;;;;;;2.33;0.60;;;;;;;;;;4899044;29;20221;-82
2023/10/31 05:39:02;;;;;;;0.80;0.70;;;;;;;;;;4899193;29;20190;-83
2023/10/31 05:42:06;;;;;;;0.77;0.57;;;;;;;;;;4898635;29;20206;-82
2023/10/31 05:45:10;;;;;;;1.37;0.70;;;;;;;;;;4899437;29;20190;-82
2023/10/31 05:48:14;;;;;;;3.23;0.97;;;;;;;;;;4899784;29;20678;-82
2023/10/31 05:51:19;;;;;;;0.97;0.60;;;;;;;;;;4902587;29;20631;-83
2023/10/31 05:54:24;;;;;;;0.70;0.60;;;;;;;;;;4902827;29;20190;-83
2023/10/31 05:57:28;;;;;;;1.47;0.63;;;;;;;;;;4902467;29;20221;-82
2023/10/31 06:00:32;;;;;;;0.63;0.63;;;;;;;;;;4903050;29;20190;-82
2023/10/31 06:03:37;;;;;;;2.00;0.83;;;;;;;;;;4902544;29;20190;-82
2023/10/31 06:06:41;;;;;;;2.10;0.70;;;;;;;;;;4902153;29;20229;-83
2023/10/31 06:09:45;;;;;;;2.50;0.80;;;;;;;;;;4901613;29;20690;-82
2023/10/31 06:12:49;;;;;;;3.53;0.97;;;;;;;;;;4902112;29;20642;-83
2023/10/31 06:15:54;;;;;;;2.07;1.00;;;;;;;;;;4902157;29;20244;-83
2023/10/31 06:18:58;;;;;;;1.03;0.80;;;;;;;;;;4902935;29;20186;-81
2023/10/31 06:22:03;;;;;;;1.13;1.00;;;;;;;;;;4902459;29;20198;-83
2023/10/31 06:25:07;;;;;;;4.00;1.27;;;;;;;;;;4902564;29;20198;-83
2023/10/31 06:28:11;;;;;;;1.40;0.90;;;;;;;;;;4901459;29;20211;-82
2023/10/31 06:31:16;;;;;;;2.50;1.00;;;;;;;;;;4902202;29;20548;-81
2023/10/31 06:34:20;;;;;;;1.10;1.00;;;;;;;;;;4902281;29;20189;-82
2023/10/31 06:37:24;;;;;;;1.30;0.90;;;;;;;;;;4901839;29;20229;-83
2023/10/31 06:40:28;;;;;;;2.20;0.80;;;;;;;;;;4901507;29;20186;-81
2023/10/31 06:43:32;;;;;;;2.17;1.00;;;;;;;;;;4901253;29;20189;-82
2023/10/31 06:46:36;;;;;;;3.33;2.23;;;;;;;;;;4901749;29;20228;-83
2023/10/31 06:49:40;;;;;;;6.77;4.47;;;;;;;;;;4901025;29;20217;-82
2023/10/31 06:52:44;;;;;;;3.20;2.27;;;;;;;;;;4901026;29;20194;-82
2023/10/31 06:55:49;;;;;;;3.70;2.80;;;;;;;;;;4901016;29;20225;-83
2023/10/31 06:58:53;;;;;;;6.93;5.20;;;;;;;;;;4901647;29;20203;-82
2023/10/31 07:01:57;;;;;;;3.60;3.10;;;;;;;;;;4901563;29;20193;-84
2023/10/31 07:05:03;;;;;;;2.73;2.37;;;;;;;;;;4900989;29;20185;-83
2023/10/31 07:08:07;;;;;;;2.93;1.80;;;;;;;;;;4901865;29;20194;-82
2023/10/31 07:11:11;;;;;;;2.13;1.73;;;;;;;;;;4900832;29;20182;-83
2023/10/31 07:14:15;;;;;;;1.33;1.23;;;;;;;;;;4901389;29;20639;-82
2023/10/31 07:17:19;;;;;;;1.27;0.80;;;;;;;;;;4901001;29;20232;-83
2023/10/31 07:20:23;;;;;;;1.10;0.93;;;;;;;;;;4900830;29;20185;-81
2023/10/31 07:23:27;;;;;;;1.20;1.10;;;;;;;;;;4900364;29;20194;-83
2023/10/31 07:26:31;;;;;;;1.40;1.30;;;;;;;;;;4901705;29;20224;-83
2023/10/31 07:29:39;;;;;;;3.90;0.90;;;;;;;;;;4900447;29;20217;-82
2023/10/31 07:32:43;;;;;;;1.57;1.47;;;;;;;;;;4901404;29;20189;-83
2023/10/31 07:35:47;;;;;;;1.63;1.20;;;;;;;;;;4899761;29;20224;-82
2023/10/31 07:38:51;;;;;;;3.53;0.63;;;;;;;;;;4900583;29;20181;-82
2023/10/31 07:41:55;;;;;;;9.20;6.70;;;;;;;;;;4900533;29;20193;-81
2023/10/31 07:44:59;;;;;;;3.00;1.67;;;;;;;;;;4889392;29;20185;-81
2023/10/31 07:48:04;;;;;;;1.60;1.50;;;;;;;;;;4900667;29;20186;-82
2023/10/31 07:51:08;;;;;;;1.50;0.70;;;;;;;;;;4900284;29;20182;-83
2023/10/31 07:54:12;;;;;;;0.93;0.80;;;;;;;;;;4900200;29;20197;-82
2023/10/31 07:57:16;;;;;;;6.30;3.93;;;;;;;;;;4900269;29;20229;-82
2023/10/31 08:00:21;;;;;;;4.23;3.23;;;;;;;;;;4900318;29;20185;-83
2023/10/31 08:03:26;;;;;;;5.27;1.70;;;;;;;;;;4899870;29;20186;-81
2023/10/31 08:06:31;;;;;;;2.47;1.83;;;;;;;;;;4899709;29;20257;-82
2023/10/31 08:09:35;;;;;;;3.20;1.43;;;;;;;;;;4900527;29;20556;-82
2023/10/31 08:12:39;;;;;;;2.13;1.70;;;;;;;;;;4900043;29;20636;-81
2023/10/31 08:15:44;;;;;;;0.90;0.60;;;;;;;;;;4899793;29;20237;-82
2023/10/31 08:18:48;;;;;;;1.63;1.00;;;;;;;;;;4899352;29;20555;-83
2023/10/31 08:21:53;;;;;;;0.97;0.80;;;;;;;;;;4900567;29;20185;-81
2023/10/31 08:24:57;;;;;;;4.37;0.77;;;;;;;;;;4903037;29;20190;-80
2023/10/31 08:28:00;;;;;;;3.60;2.20;;;;;;;;;;4890729;29;20189;-81
2023/10/31 08:31:07;;;;;;;1.30;0.60;;;;;;;;;;4901785;29;20181;-82
2023/10/31 08:34:11;;;;;;;1.43;0.80;;;;;;;;;;4903355;29;20189;-84
2023/10/31 08:37:15;;;;;;;2.63;0.60;;;;;;;;;;4902372;29;20229;-83
2023/10/31 08:40:19;;;;;;;1.70;0.70;;;;;;;;;;4902539;29;20182;-84
2023/10/31 08:43:23;;;;;;;1.10;0.90;;;;;;;;;;4901994;29;20189;-83
2023/10/31 08:46:28;;;;;;;1.30;1.10;;;;;;;;;;4901732;29;20229;-84
2023/10/31 08:49:32;;;;;;;3.70;1.00;;;;;;;;;;4900312;29;20213;-83
2023/10/31 08:52:38;;;;;;;2.60;1.20;;;;;;;;;;4900692;29;20189;-83
2023/10/31 08:55:43;;;;;;;9.50;6.40;;;;;;;;;;4903755;29;20225;-84
2023/10/31 08:58:48;;;;;;;2.63;1.50;;;;;;;;;;4903906;29;20543;-83
2023/10/31 09:01:52;;;;;;;1.50;0.83;;;;;;;;;;4903896;29;20185;-82
2023/10/31 09:04:56;;;;;;;0.90;0.70;;;;;;;;;;4889898;29;20189;-82
2023/10/31 09:08:01;;;;;;;3.00;0.70;;;;;;;;;;4901719;29;20198;-82
2023/10/31 09:11:05;;;;;;;1.50;0.87;;;;;;;;;;4901626;29;20217;-83
2023/10/31 09:14:09;;;;;;;2.37;1.10;;;;;;;;;;4901093;29;20190;-81
2023/10/31 09:17:13;;;;;;;5.00;3.80;;;;;;;;;;4901646;29;20233;-83
2023/10/31 09:20:18;;;;;;;3.07;1.00;;;;;;;;;;4900710;29;20647;-82
2023/10/31 09:23:22;;;;;;;3.13;0.80;;;;;;;;;;4902342;29;20189;-82
2023/10/31 09:26:26;;;;;;;1.67;1.20;;;;;;;;;;4903848;29;20229;-82
2023/10/31 09:29:31;;;;;;;1.87;1.37;;;;;;;;;;4903725;29;20678;-82
2023/10/31 09:32:34;;;;;;;1.97;1.40;;;;;;;;;;4905075;29;20189;-81
2023/10/31 09:35:39;;;;;;;1.83;1.50;;;;;;;;;;4904017;29;20540;-82
2023/10/31 09:38:43;;;;;;;3.70;3.40;;;;;;;;;;4904977;29;20189;-82
2023/10/31 09:41:48;;;;;;;2.17;1.50;;;;;;;;;;4904997;29;20631;-82
2023/10/31 09:44:52;;;;;;;2.30;1.37;;;;;;;;;;4904375;29;20186;-82
2023/10/31 09:47:57;;;;;;;2.73;0.90;;;;;;;;;;4904535;29;20194;-82
2023/10/31 09:51:02;;;;;;;3.40;3.10;;;;;;;;;;4904679;29;20221;-83
2023/10/31 09:54:07;;;;;;;2.50;2.00;;;;;;;;;;4904628;29;20190;-82
2023/10/31 09:57:13;;;;;;;1.87;1.70;;;;;;;;;;4903991;29;20230;-82
2023/10/31 10:00:18;;;;;;;11.67;8.03;;;;;;;;;;4893526;29;20512;-83
2023/10/31 10:03:22;;;;;;;1.50;1.40;;;;;;;;;;4903518;29;20532;-82
2023/10/31 10:06:26;;;;;;;3.23;1.00;;;;;;;;;;4904225;29;20221;-83
2023/10/31 10:09:32;;;;;;;2.30;0.93;;;;;;;;;;4903982;29;20221;-82
2023/10/31 10:12:36;;;;;;;3.20;0.90;;;;;;;;;;4904328;29;20194;-82
2023/10/31 10:15:52;;;;;;;1.03;0.90;;;;;;;;;;4902686;29;20228;-83
2023/10/31 10:18:56;;;;;;;1.40;0.90;;;;;;;;;;4902613;29;20181;-82
2023/10/31 10:22:00;;;;;;;1.30;0.90;;;;;;;;;;4903715;29;20628;-85
2023/10/31 10:25:08;;;;;;;1.57;1.10;;;;;;;;;;4906049;29;20189;-85
2023/10/31 10:28:13;;;;;;;0.93;0.87;;;;;;;;;;4904578;29;20532;-81
2023/10/31 10:31:18;;;;;;;6.10;3.20;;;;;;;;;;4903304;29;20225;-83
2023/10/31 10:34:22;;;;;;;1.50;0.90;;;;;;;;;;4903308;29;20185;-81
2023/10/31 10:37:27;;;;;;;3.80;0.70;;;;;;;;;;4902724;29;20572;-82
2023/10/31 10:40:31;;;;;;;3.20;1.00;;;;;;;;;;4903810;29;20182;-83
2023/10/31 10:43:37;;;;;;;2.83;1.00;;;;;;;;;;4903279;29;20519;-82
2023/10/31 10:46:48;;;;;;;8.13;1.10;;;;;;;;;;4903346;29;20221;-84
2023/10/31 10:49:57;;;;;;;4.70;0.87;;;;;;;;;;4905321;29;20209;-84
2023/10/31 10:53:10;;;;;;;2.97;0.80;;;;;;;;;;4904528;29;20190;-84
2023/10/31 10:56:23;;;;;;;1.60;0.70;;;;;;;;;;4905213;29;20221;-87
2023/10/31 10:59:41;;;;;;;1.47;0.73;;;;;;;;;;4907262;29;20186;-87
2023/10/31 11:02:46;;;;;;;1.67;0.67;;;;;;;;;;4893273;29;20193;-82
2023/10/31 11:05:51;;;;;;;1.93;0.70;;;;;;;;;;4905064;29;20225;-83
2023/10/31 11:08:55;;;;;;;0.90;0.67;;;;;;;;;;4903520;29;20194;-83
2023/10/31 11:12:00;;;;;;;1.73;0.87;;;;;;;;;;4902728;29;20190;-84
2023/10/31 11:15:06;;;;;;;5.37;0.93;;;;;;;;;;4903347;29;20198;-83
2023/10/31 11:18:11;;;;;;;1.30;1.00;;;;;;;;;;4903216;29;20190;-84
2023/10/31 11:21:16;;;;;;;3.77;1.13;;;;;;;;;;4902169;29;20190;-83
2023/10/31 11:24:22;;;;;;;20.17;10.33;;;;;;;;;;4903216;29;20185;-84
2023/10/31 11:27:27;;;;;;;6.73;4.43;;;;;;;;;;4902397;29;20228;-84
2023/10/31 11:30:34;;;;;;;3.33;2.50;;;;;;;;;;4902789;29;20213;-85
2023/10/31 11:33:40;;;;;;;3.50;1.53;;;;;;;;;;4902205;29;20189;-85
2023/10/31 11:36:46;;;;;;;3.30;2.07;;;;;;;;;;4903124;29;20225;-84
2023/10/31 11:40:13;;;;;;;6.10;2.97;;;;;;;;;;4900056;29;20189;-84
2023/10/31 11:43:17;;;;;;;8.37;4.27;;;;;;;;;;4901320;29;20189;-84
2023/10/31 11:46:24;;;;;;;7.30;3.30;;;;;;;;;;4900847;29;20225;-84
2023/10/31 11:49:48;;;;;;;7.87;1.80;;;;;;;;;;4900653;29;20647;-84
2023/10/31 11:53:20;;;;;;;7.20;2.00;;;;;;;;;;4900582;29;20190;-84
2023/10/31 11:56:25;;;;;;;14.87;7.77;;;;;;;;;;4900793;29;20572;-84
2023/10/31 11:59:38;;;;;;;29.80;14.07;;;;;;;;;;4901489;29;20194;-84
2023/10/31 12:02:57;;;;;;;19.13;9.63;;;;;;;;;;4900541;29;20188;-85
2023/10/31 12:06:01;;;;;;;25.37;14.23;;;;;;;;;;4902075;29;20695;-84
2023/10/31 12:09:05;;;;;;;29.00;17.50;;;;;;;;;;4902026;29;20217;-84
2023/10/31 12:12:09;;;;;;;15.90;10.97;;;;;;;;;;4902270;29;20232;-83
2023/10/31 12:15:14;;;;;;;8.67;4.70;;;;;;;;;;4902256;29;20216;-84
2023/10/31 12:18:18;;;;;;;4.83;1.50;;;;;;;;;;4891430;29;20186;-84
2023/10/31 12:21:46;;;;;;;6.97;4.73;;;;;;;;;;4890267;29;20524;-84
2023/10/31 12:24:50;;;;;;;5.27;2.10;;;;;;;;;;4902143;29;20193;-84
2023/10/31 12:27:54;;;;;;;1.80;1.50;;;;;;;;;;4902518;29;20193;-83
2023/10/31 12:30:59;;;;;;;3.43;1.10;;;;;;;;;;4902377;29;20217;-84
2023/10/31 12:34:06;;;;;;;3.47;2.00;;;;;;;;;;4902700;29;20631;-82
2023/10/31 12:37:10;;;;;;;3.97;1.53;;;;;;;;;;4902692;29;20567;-82
2023/10/31 12:40:17;;;;;;;3.97;1.93;;;;;;;;;;4902159;29;20194;-85
2023/10/31 12:43:21;;;;;;;3.40;1.80;;;;;;;;;;4902425;29;20189;-85
2023/10/31 12:46:29;;;;;;;4.27;1.90;;;;;;;;;;4901469;29;20225;-83
2023/10/31 12:49:34;;;;;;;1.43;1.30;;;;;;;;;;4902094;29;20193;-83
2023/10/31 12:52:52;;;;;;;3.77;0.90;;;;;;;;;;4901436;29;20186;-83
2023/10/31 12:55:56;;;;;;;2.27;1.03;;;;;;;;;;4890491;29;20288;-83
2023/10/31 12:59:00;;;;;;;2.93;0.93;;;;;;;;;;4908524;29;20185;-83
2023/10/31 13:02:06;;;;;;;2.93;1.17;;;;;;;;;;4908215;29;20185;-83
2023/10/31 13:05:12;;;;;;;2.97;0.93;;;;;;;;;;4908528;29;20193;-83
2023/10/31 13:08:16;;;;;;;7.27;1.00;;;;;;;;;;4909408;29;20193;-83
2023/10/31 13:11:25;;;;;;;3.67;0.83;;;;;;;;;;4910847;29;20212;-83
2023/10/31 13:14:29;;;;;;;1.77;0.80;;;;;;;;;;4910359;29;20193;-83
2023/10/31 13:17:36;;;;;;;3.40;1.00;;;;;;;;;;4909181;29;20240;-84
2023/10/31 13:20:40;;;;;;;2.17;0.97;;;;;;;;;;4909642;29;20185;-84
2023/10/31 13:23:45;;;;;;;4.13;0.90;;;;;;;;;;4909703;29;20197;-84
2023/10/31 13:26:51;;;;;;;4.20;1.63;;;;;;;;;;4898463;29;20225;-83
2023/10/31 13:29:55;;;;;;;12.83;8.57;;;;;;;;;;4909579;29;20185;-83
2023/10/31 13:32:59;;;;;;;11.37;4.87;;;;;;;;;;4909802;29;20182;-84
2023/10/31 13:36:04;;;;;;;17.73;9.80;;;;;;;;;;4909132;29;20225;-84
2023/10/31 13:39:08;;;;;;;17.77;10.97;;;;;;;;;;4910133;29;20193;-84
2023/10/31 13:42:14;;;;;;;3.83;0.90;;;;;;;;;;4910177;29;20539;-83
2023/10/31 13:45:18;;;;;;;6.40;1.83;;;;;;;;;;4909264;29;20194;-84
2023/10/31 13:48:22;;;;;;;5.20;1.43;;;;;;;;;;4910136;29;20193;-84
2023/10/31 13:51:26;;;;;;;2.70;1.40;;;;;;;;;;4909216;29;20221;-84
2023/10/31 13:54:30;;;;;;;5.17;1.10;;;;;;;;;;4910136;29;20190;-83
2023/10/31 13:57:35;;;;;;;1.83;0.90;;;;;;;;;;4898403;29;20229;-84
2023/10/31 14:00:39;;;;;;;16.60;7.70;;;;;;;;;;4909702;29;20190;-83
2023/10/31 14:03:44;;;;;;;13.83;7.83;;;;;;;;;;4909165;29;20193;-83
2023/10/31 14:06:48;;;;;;;48.97;24.47;;;;;;;;;;4908743;29;20220;-84
2023/10/31 14:09:53;;;;;;;30.73;14.03;;;;;;;;;;4906485;29;20694;-83
2023/10/31 14:12:57;;;;;;;56.13;25.77;;;;;;;;;;4906470;29;20193;-81
2023/10/31 14:16:01;;;;;;;6.87;4.20;;;;;;;;;;4906921;29;20629;-82
2023/10/31 14:19:07;;;;;;;4.63;1.77;;;;;;;;;;4906288;29;20190;-81
2023/10/31 14:22:14;;;;;;;3.27;1.23;;;;;;;;;;4905424;29;20186;-81
2023/10/31 14:25:18;;;;;;;3.63;1.63;;;;;;;;;;4909104;29;20190;-82
2023/10/31 14:28:22;;;;;;;2.93;1.30;;;;;;;;;;4905583;29;20528;-83
2023/10/31 14:31:26;;;;;;;17.30;9.60;;;;;;;;;;4905510;29;20217;-81
2023/10/31 14:34:30;;;;;;;2.80;1.70;;;;;;;;;;4907135;29;20194;-84
2023/10/31 14:37:35;;;;;;;2.73;1.20;;;;;;;;;;4924851;29;20582;-83
2023/10/31 14:40:39;;;;;;;2.03;0.90;;;;;;;;;;4914370;29;20185;-83
2023/10/31 14:43:43;;;;;;;1.87;0.87;;;;;;;;;;4913463;29;20189;-83
2023/10/31 14:46:47;;;;;;;2.90;1.00;;;;;;;;;;4925295;29;20220;-82
2023/10/31 14:49:51;;;;;;;5.70;1.20;;;;;;;;;;4903439;29;20193;-83
2023/10/31 14:52:55;;;;;;;3.70;0.80;;;;;;;;;;4914184;29;20212;-84
2023/10/31 14:56:01;;;;;;;2.37;0.83;;;;;;;;;;4925835;29;20563;-85
2023/10/31 14:59:05;;;;;;;2.30;0.87;;;;;;;;;;4914388;29;20189;-85
2023/10/31 15:02:10;;;;;;;1.93;0.70;;;;;;;;;;4922857;29;20185;-85
2023/10/31 15:05:15;;;;;;;2.97;0.93;;;;;;;;;;4910753;29;20197;-85
2023/10/31 15:08:19;;;;;;;3.23;0.80;;;;;;;;;;4911422;29;20543;-84
2023/10/31 15:11:23;;;;;;;2.13;1.00;;;;;;;;;;4923893;29;20220;-86
2023/10/31 15:14:27;;;;;;;2.43;0.80;;;;;;;;;;4925575;29;20189;-85
2023/10/31 15:17:31;;;;;;;2.00;0.70;;;;;;;;;;4974963;23;20243;-85
2023/10/31 15:20:36;;;;;;;2.10;0.70;;;;;;;;;;4928734;29;20188;-86
2023/10/31 15:23:40;;;;;;;3.70;0.90;;;;;;;;;;4929703;29;20181;-85
2023/10/31 15:26:44;;;;;;;5.50;0.80;;;;;;;;;;4940264;29;20220;-85
2023/10/31 15:29:48;;;;;;;3.83;1.20;;;;;;;;;;4929152;29;20538;-87
2023/10/31 15:32:54;;;;;;;3.43;1.30;;;;;;;;;;4906921;29;20220;-87
2023/10/31 15:36:16;;;;;;;2.43;2.03;;;;;;;;;;4939248;29;20236;-88
2023/10/31 15:39:22;;;;;;;2.50;2.20;;;;;;;;;;4928634;29;20192;-87
2023/10/31 15:42:28;;;;;;;3.67;1.33;;;;;;;;;;4917582;29;20192;-87
2023/10/31 15:45:39;;;;;;;3.00;0.90;;;;;;;;;;4916975;29;20188;-87
2023/10/31 15:48:44;;;;;;;4.30;2.00;;;;;;;;;;4926897;29;20184;-87
2023/10/31 15:51:48;;;;;;;1.37;1.23;;;;;;;;;;4927610;29;20216;-87
2023/10/31 15:54:52;;;;;;;4.70;1.67;;;;;;;;;;4925642;29;20192;-88
2023/10/31 15:57:57;;;;;;;1.40;1.00;;;;;;;;;;4936403;29;20696;-86
2023/10/31 16:01:01;;;;;;;1.73;0.83;;;;;;;;;;4926415;29;20188;-86
2023/10/31 16:04:05;;;;;;;0.97;0.87;;;;;;;;;;4927072;29;20534;-86
2023/10/31 16:07:10;;;;;;;2.30;1.07;;;;;;;;;;4926073;29;20231;-86
2023/10/31 16:10:14;;;;;;;0.83;0.70;;;;;;;;;;4915889;29;20527;-85
2023/10/31 16:13:18;;;;;;;3.30;0.90;;;;;;;;;;4927788;29;20550;-85
2023/10/31 16:16:23;;;;;;;2.50;0.80;;;;;;;;;;4906083;29;20704;-86
2023/10/31 16:19:27;;;;;;;2.20;0.70;;;;;;;;;;4918837;29;20188;-85
2023/10/31 16:22:31;;;;;;;1.27;1.03;;;;;;;;;;4929760;29;20180;-85
2023/10/31 16:25:35;;;;;;;4.30;2.37;;;;;;;;;;4930832;29;20192;-85
2023/10/31 16:28:39;;;;;;;3.23;1.83;;;;;;;;;;4930623;29;20188;-85
2023/10/31 16:31:44;;;;;;;1.50;0.90;;;;;;;;;;4927922;29;20216;-85
2023/10/31 16:34:51;;;;;;;4.43;1.23;;;;;;;;;;4938417;29;20192;-85
2023/10/31 16:37:55;;;;;;;1.00;0.90;;;;;;;;;;4916609;29;20232;-85
2023/10/31 16:41:03;;;;;;;1.93;1.03;;;;;;;;;;4917302;29;20188;-85
2023/10/31 16:44:07;;;;;;;1.30;0.93;;;;;;;;;;4927804;29;20184;-85
2023/10/31 16:47:11;;;;;;;3.37;1.60;;;;;;;;;;4937730;29;20228;-85
2023/10/31 16:50:15;;;;;;;1.93;1.10;;;;;;;;;;4927474;29;20200;-85
2023/10/31 16:53:20;;;;;;;2.03;1.30;;;;;;;;;;4926662;29;20224;-86
2023/10/31 16:56:25;;;;;;;1.70;1.40;;;;;;;;;;4917819;29;20228;-88
2023/10/31 16:59:30;;;;;;;2.60;1.00;;;;;;;;;;4928944;29;20188;-86
2023/10/31 17:02:34;;;;;;;1.70;1.10;;;;;;;;;;4927286;29;20184;-86
2023/10/31 17:05:39;;;;;;;1.87;1.00;;;;;;;;;;4927687;29;20184;-86
2023/10/31 17:08:43;;;;;;;2.53;1.27;;;;;;;;;;4927648;29;20625;-86
2023/10/31 17:11:47;;;;;;;2.37;1.10;;;;;;;;;;4916609;29;20220;-85
2023/10/31 17:14:53;;;;;;;1.43;1.10;;;;;;;;;;4927221;29;20331;-85
2023/10/31 17:17:57;;;;;;;3.23;1.80;;;;;;;;;;4936474;29;20231;-85
2023/10/31 17:21:01;;;;;;;4.13;2.80;;;;;;;;;;4926921;29;20193;-84
2023/10/31 17:24:06;;;;;;;2.73;1.50;;;;;;;;;;4938862;29;20653;-84
2023/10/31 17:27:11;;;;;;;6.33;1.60;;;;;;;;;;4916160;29;20228;-86
2023/10/31 17:30:15;;;;;;;1.77;1.23;;;;;;;;;;4927570;29;20184;-84
2023/10/31 17:33:19;;;;;;;3.03;1.60;;;;;;;;;;4928294;29;20212;-83
2023/10/31 17:36:23;;;;;;;3.17;2.07;;;;;;;;;;4930129;29;20224;-83
2023/10/31 17:39:28;;;;;;;2.67;1.93;;;;;;;;;;4942313;29;20188;-83
2023/10/31 17:42:33;;;;;;;3.90;2.57;;;;;;;;;;4930694;29;20185;-83
2023/10/31 17:45:37;;;;;;;2.97;1.93;;;;;;;;;;4944926;29;20184;-83
2023/10/31 17:48:41;;;;;;;2.50;1.60;;;;;;;;;;4933574;29;20196;-83
2023/10/31 17:51:46;;;;;;;2.47;1.37;;;;;;;;;;4945797;29;20196;-83
2023/10/31 17:54:50;;;;;;;2.33;1.50;;;;;;;;;;4945287;29;20184;-83
2023/10/31 17:57:54;;;;;;;3.53;1.50;;;;;;;;;;4934155;29;20232;-83
2023/10/31 18:00:58;;;;;;;5.10;1.50;;;;;;;;;;4922903;29;20530;-83
2023/10/31 18:04:02;;;;;;;2.77;1.70;;;;;;;;;;4934381;29;20188;-86
2023/10/31 18:07:06;;;;;;;3.60;1.80;;;;;;;;;;4944570;29;20231;-83
2023/10/31 18:10:10;;;;;;;3.00;1.97;;;;;;;;;;4932869;29;20629;-82
2023/10/31 18:13:14;;;;;;;3.20;2.03;;;;;;;;;;4931519;29;20216;-83
2023/10/31 18:16:19;;;;;;;2.20;1.97;;;;;;;;;;4931875;29;20231;-83
2023/10/31 18:19:24;;;;;;;3.73;2.27;;;;;;;;;;4929769;29;20192;-84
2023/10/31 18:22:27;;;;;;;3.33;2.33;;;;;;;;;;4940828;29;20188;-84
2023/10/31 18:25:32;;;;;;;2.63;2.17;;;;;;;;;;4941350;29;20188;-84
2023/10/31 18:28:36;;;;;;;3.93;2.20;;;;;;;;;;4940649;29;20196;-84